Time;durP1;ratioP1;P1;durP2;ratioP2;P2;SDS_P1;SDS_P2;PMS_P1;PMS_P2;Temp;Humidity;BMP_temperature;BMP_pressure;BME280_temperature;BME280_humidity;BME280_pressure;Samples;Min_cycle;Max_cycle;Signal;HPM_P1;HPM_P2
2022/03/14 00:00:10;;;;;;;1.90;1.77;;;11.80;95.90;;;;;;5061988;28;20898;-47
2022/03/14 00:02:41;;;;;;;2.43;2.23;;;11.80;95.90;;;;;;5054727;28;20548;-49
2022/03/14 00:05:13;;;;;;;2.43;2.10;;;11.80;96.00;;;;;;5069704;28;20854;-49
2022/03/14 00:07:42;;;;;;;2.70;1.87;;;11.80;96.00;;;;;;5054900;28;20968;-48
2022/03/14 00:10:15;;;;;;;2.40;2.20;;;11.80;96.00;;;;;;5069691;28;20925;-48
2022/03/14 00:12:44;;;;;;;2.07;1.90;;;11.80;96.00;;;;;;5070022;28;20852;-48
2022/03/14 00:15:14;;;;;;;2.50;2.03;;;11.80;96.00;;;;;;5051214;28;20434;-49
2022/03/14 00:17:45;;;;;;;1.90;1.80;;;11.80;96.00;;;;;;5056500;28;21038;-47
2022/03/14 00:20:15;;;;;;;2.20;1.93;;;11.80;96.00;;;;;;5070170;28;20517;-46
2022/03/14 00:22:46;;;;;;;2.07;1.97;;;11.80;96.00;;;;;;5055549;28;20512;-48
2022/03/14 00:25:15;;;;;;;3.07;2.77;;;11.80;96.00;;;;;;5069759;28;20775;-47
2022/03/14 00:27:43;;;;;;;1.90;1.80;;;11.80;96.00;;;;;;5070300;28;20496;-48
2022/03/14 00:30:13;;;;;;;2.20;2.00;;;11.80;96.00;;;;;;5068320;28;20496;-47
2022/03/14 00:32:41;;;;;;;2.27;2.10;;;11.80;96.10;;;;;;5069843;28;20469;-47
2022/03/14 00:35:11;;;;;;;2.50;2.30;;;11.80;96.00;;;;;;5066765;28;20495;-48
2022/03/14 00:37:44;;;;;;;1.80;1.70;;;11.80;96.10;;;;;;5055145;28;20483;-48
2022/03/14 00:40:16;;;;;;;2.70;2.37;;;11.80;96.10;;;;;;5069967;28;20449;-47
2022/03/14 00:42:49;;;;;;;2.10;1.90;;;11.80;96.10;;;;;;5069822;28;20457;-46
2022/03/14 00:45:17;;;;;;;3.10;2.47;;;11.80;96.10;;;;;;5060584;28;20516;-48
2022/03/14 00:47:45;;;;;;;2.03;1.90;;;11.80;96.20;;;;;;5052984;28;20465;-46
2022/03/14 00:50:13;;;;;;;2.47;2.00;;;11.80;96.10;;;;;;5051035;28;20960;-47
2022/03/14 00:52:41;;;;;;;2.20;2.00;;;11.80;96.10;;;;;;5054643;28;20543;-46
2022/03/14 00:55:10;;;;;;;2.30;2.10;;;11.80;96.10;;;;;;5069199;28;20427;-48
2022/03/14 00:57:40;;;;;;;2.97;2.07;;;11.80;96.20;;;;;;5069718;28;20422;-48
2022/03/14 01:00:08;;;;;;;3.50;2.30;;;11.80;96.20;;;;;;5069435;28;20450;-47
2022/03/14 01:02:37;;;;;;;2.10;1.90;;;11.80;96.30;;;;;;5054044;28;20458;-48
2022/03/14 01:05:07;;;;;;;1.83;1.67;;;11.80;96.20;;;;;;5069052;28;20429;-48
2022/03/14 01:07:35;;;;;;;3.33;2.77;;;11.80;96.20;;;;;;5067355;28;20553;-49
2022/03/14 01:10:05;;;;;;;2.60;2.00;;;11.80;96.20;;;;;;5069087;28;20894;-47
2022/03/14 01:12:33;;;;;;;3.10;2.80;;;11.80;96.20;;;;;;5052154;28;20473;-49
2022/03/14 01:15:03;;;;;;;2.87;2.60;;;11.80;96.20;;;;;;5070689;28;20448;-49
2022/03/14 01:17:31;;;;;;;2.70;2.03;;;11.80;96.30;;;;;;5055459;28;20455;-48
2022/03/14 01:20:08;;;;;;;2.40;2.20;;;11.80;96.30;;;;;;5052136;28;20430;-49
2022/03/14 01:22:36;;;;;;;4.30;2.20;;;11.80;96.30;;;;;;5053203;28;20502;-47
2022/03/14 01:25:06;;;;;;;2.80;2.43;;;11.80;96.30;;;;;;5052134;28;20438;-46
2022/03/14 01:27:36;;;;;;;2.23;2.03;;;11.80;96.30;;;;;;5073027;28;20438;-46
2022/03/14 01:30:06;;;;;;;2.57;2.30;;;11.80;96.40;;;;;;5071008;28;20476;-48
2022/03/14 01:32:35;;;;;;;2.70;2.50;;;11.80;96.30;;;;;;5072637;28;20458;-46
2022/03/14 01:35:04;;;;;;;2.67;1.40;;;11.80;96.40;;;;;;5072367;28;20495;-47
2022/03/14 01:37:32;;;;;;;2.20;2.10;;;11.80;96.30;;;;;;5071767;28;20434;-48
2022/03/14 01:40:01;;;;;;;2.87;2.30;;;11.80;96.30;;;;;;5073045;28;20437;-48
2022/03/14 01:42:29;;;;;;;2.30;1.73;;;11.80;96.30;;;;;;5072759;28;20462;-47
2022/03/14 01:44:57;;;;;;;1.90;1.80;;;11.80;96.30;;;;;;5069204;28;20460;-46
2022/03/14 01:47:28;;;;;;;2.00;1.80;;;11.80;96.30;;;;;;5070912;28;20530;-47
2022/03/14 01:49:56;;;;;;;2.20;1.97;;;11.80;96.30;;;;;;5073022;28;20468;-49
2022/03/14 01:52:25;;;;;;;2.17;1.97;;;11.80;96.30;;;;;;5070623;28;20566;-47
2022/03/14 01:54:53;;;;;;;2.20;2.00;;;11.80;96.30;;;;;;5072735;28;20483;-46
2022/03/14 01:57:21;;;;;;;2.00;1.90;;;11.80;96.20;;;;;;5072293;28;20494;-48
2022/03/14 01:59:50;;;;;;;1.90;1.80;;;11.80;96.20;;;;;;5065195;28;20474;-47
2022/03/14 02:02:21;;;;;;;1.70;1.50;;;11.80;96.20;;;;;;5071237;28;20477;-48
2022/03/14 02:05:00;;;;;;;2.23;1.77;;;11.80;96.20;;;;;;5072608;28;20501;-49
2022/03/14 02:07:29;;;;;;;1.87;1.77;;;11.80;96.20;;;;;;5052004;28;20463;-48
2022/03/14 02:09:58;;;;;;;1.57;1.47;;;11.80;96.20;;;;;;5052713;28;20550;-48
2022/03/14 02:12:27;;;;;;;2.00;1.80;;;11.80;96.20;;;;;;5071558;28;20465;-49
2022/03/14 02:14:55;;;;;;;1.80;1.70;;;11.80;96.20;;;;;;5065727;28;20505;-50
2022/03/14 02:17:23;;;;;;;1.60;1.47;;;11.80;96.20;;;;;;5070583;28;20869;-49
2022/03/14 02:19:53;;;;;;;2.23;2.00;;;11.80;96.20;;;;;;5072729;28;20865;-47
2022/03/14 02:22:23;;;;;;;1.57;1.47;;;11.80;96.20;;;;;;5070062;28;20879;-47
2022/03/14 02:24:51;;;;;;;1.53;1.43;;;11.80;96.20;;;;;;5071277;28;20430;-48
2022/03/14 02:27:19;;;;;;;1.60;1.50;;;11.80;96.20;;;;;;5070376;28;20462;-48
2022/03/14 02:29:47;;;;;;;2.10;1.90;;;11.80;96.20;;;;;;5071328;28;20446;-49
2022/03/14 02:32:15;;;;;;;1.73;1.63;;;11.80;96.20;;;;;;5069232;28;20532;-47
2022/03/14 02:34:44;;;;;;;1.40;1.30;;;11.80;96.20;;;;;;5071423;28;20484;-49
2022/03/14 02:37:12;;;;;;;2.00;1.80;;;11.80;96.20;;;;;;5056991;28;20847;-46
2022/03/14 02:39:41;;;;;;;2.80;1.90;;;11.80;96.20;;;;;;5064266;28;20429;-46
2022/03/14 02:42:10;;;;;;;2.20;1.50;;;11.80;96.20;;;;;;5071331;28;20977;-49
2022/03/14 02:44:43;;;;;;;1.70;1.60;;;11.80;96.20;;;;;;5070745;28;20473;-47
2022/03/14 02:47:12;;;;;;;2.00;1.87;;;11.80;96.20;;;;;;5054476;28;20532;-48
2022/03/14 02:49:40;;;;;;;1.67;1.57;;;11.80;96.20;;;;;;5051725;28;20464;-48
2022/03/14 02:52:09;;;;;;;2.20;1.90;;;11.80;96.30;;;;;;5058069;28;20539;-48
2022/03/14 02:54:41;;;;;;;1.43;1.33;;;11.80;96.30;;;;;;5070377;28;20836;-47
2022/03/14 02:57:09;;;;;;;3.40;2.03;;;11.80;96.40;;;;;;5070695;28;20473;-46
2022/03/14 02:59:37;;;;;;;2.10;1.90;;;11.80;96.60;;;;;;5066160;28;20922;-46
2022/03/14 03:02:06;;;;;;;2.10;1.97;;;11.70;96.50;;;;;;5065843;28;20466;-46
2022/03/14 03:04:34;;;;;;;1.73;1.63;;;11.80;96.60;;;;;;5071224;28;20418;-47
2022/03/14 03:07:03;;;;;;;1.67;1.57;;;11.80;96.60;;;;;;5057583;28;20479;-49
2022/03/14 03:09:31;;;;;;;2.17;2.03;;;11.80;96.80;;;;;;5051523;28;20557;-47
2022/03/14 03:12:02;;;;;;;1.80;1.70;;;11.80;96.60;;;;;;5069357;28;20474;-46
2022/03/14 03:14:35;;;;;;;1.60;1.50;;;11.80;96.90;;;;;;5068301;28;20479;-49
2022/03/14 03:17:03;;;;;;;2.10;1.90;;;11.80;96.80;;;;;;5051494;28;20837;-47
2022/03/14 03:19:32;;;;;;;1.70;1.60;;;11.80;96.80;;;;;;5055112;28;20441;-48
2022/03/14 03:22:00;;;;;;;2.53;2.10;;;11.80;96.80;;;;;;5058158;28;20838;-48
2022/03/14 03:24:28;;;;;;;1.90;1.70;;;11.80;96.80;;;;;;5053662;28;20837;-47
2022/03/14 03:26:56;;;;;;;1.60;1.50;;;11.80;96.70;;;;;;5071140;28;20953;-46
2022/03/14 03:29:26;;;;;;;1.83;1.73;;;11.70;96.70;;;;;;5069568;28;20451;-47
2022/03/14 03:31:54;;;;;;;1.90;1.60;;;11.80;96.70;;;;;;5056862;28;20490;-48
2022/03/14 03:34:22;;;;;;;1.90;1.50;;;11.80;96.70;;;;;;5055446;28;20443;-47
2022/03/14 03:36:50;;;;;;;1.63;1.53;;;11.80;96.70;;;;;;5059258;28;20946;-46
2022/03/14 03:39:18;;;;;;;1.70;1.60;;;11.80;96.70;;;;;;5065960;28;20608;-46
2022/03/14 03:41:47;;;;;;;1.30;1.20;;;11.70;96.70;;;;;;5070348;28;20461;-49
2022/03/14 03:44:15;;;;;;;1.67;1.47;;;11.70;96.70;;;;;;5067078;28;20446;-48
2022/03/14 03:46:45;;;;;;;1.80;1.70;;;11.80;96.70;;;;;;5070279;28;20553;-47
2022/03/14 03:49:13;;;;;;;1.73;1.63;;;11.80;96.70;;;;;;5070255;28;20458;-48
2022/03/14 03:51:43;;;;;;;1.83;1.70;;;11.70;96.70;;;;;;5060277;28;20506;-48
2022/03/14 03:54:11;;;;;;;1.43;1.33;;;11.70;96.60;;;;;;5062821;28;21840;-49
2022/03/14 03:56:40;;;;;;;1.33;1.23;;;11.70;96.70;;;;;;5070449;28;20465;-47
2022/03/14 03:59:08;;;;;;;1.10;1.00;;;11.70;96.70;;;;;;5070337;28;20438;-46
2022/03/14 04:01:43;;;;;;;1.97;1.80;;;11.70;96.70;;;;;;5050653;28;20509;-48
2022/03/14 04:04:16;;;;;;;1.63;1.50;;;11.70;96.70;;;;;;5064667;28;20440;-48
2022/03/14 04:06:44;;;;;;;1.73;1.60;;;11.70;96.60;;;;;;5059893;28;20516;-47
2022/03/14 04:09:12;;;;;;;1.60;1.50;;;11.70;96.60;;;;;;5061709;28;20450;-47
2022/03/14 04:11:41;;;;;;;1.53;1.43;;;11.70;96.60;;;;;;5069770;28;20540;-48
2022/03/14 04:14:10;;;;;;;1.60;1.47;;;11.70;96.60;;;;;;5063529;28;20512;-50
2022/03/14 04:16:41;;;;;;;1.70;1.50;;;11.70;96.70;;;;;;5052446;28;20457;-47
2022/03/14 04:19:09;;;;;;;1.67;1.50;;;11.70;96.70;;;;;;5070379;28;20441;-46
2022/03/14 04:21:42;;;;;;;1.50;1.40;;;11.70;96.70;;;;;;5057042;28;20485;-47
2022/03/14 04:24:10;;;;;;;1.83;1.60;;;11.70;96.70;;;;;;5058536;28;20939;-47
2022/03/14 04:26:39;;;;;;;2.00;1.63;;;11.70;96.70;;;;;;5070024;28;20489;-48
2022/03/14 04:29:08;;;;;;;1.60;1.50;;;11.70;96.70;;;;;;5070142;28;20710;-46
2022/03/14 04:31:37;;;;;;;1.40;1.30;;;11.70;96.70;;;;;;5051846;28;20458;-48
2022/03/14 04:34:09;;;;;;;2.13;1.70;;;11.70;96.70;;;;;;5063244;28;20809;-48
2022/03/14 04:36:37;;;;;;;1.60;1.30;;;11.70;96.70;;;;;;5060491;28;21015;-47
2022/03/14 04:39:07;;;;;;;1.60;1.50;;;11.70;96.70;;;;;;5067395;28;20445;-48
2022/03/14 04:41:37;;;;;;;1.60;1.50;;;11.70;96.60;;;;;;5070013;28;20452;-46
2022/03/14 04:44:06;;;;;;;1.70;1.60;;;11.70;96.70;;;;;;5069033;28;20446;-49
2022/03/14 04:46:35;;;;;;;1.40;1.30;;;11.70;96.70;;;;;;5054554;28;20463;-48
2022/03/14 04:49:05;;;;;;;1.60;1.50;;;11.70;96.70;;;;;;5061908;28;20821;-46
2022/03/14 04:51:33;;;;;;;1.43;1.33;;;11.70;96.70;;;;;;5064607;28;20470;-48
2022/03/14 04:54:01;;;;;;;1.50;1.40;;;11.70;96.70;;;;;;5046632;28;20438;-49
2022/03/14 04:56:32;;;;;;;2.33;1.67;;;11.70;96.70;;;;;;5073789;28;20877;-48
2022/03/14 04:59:00;;;;;;;1.67;1.53;;;11.70;96.80;;;;;;5072826;28;20512;-50
2022/03/14 05:01:28;;;;;;;2.20;1.40;;;11.70;96.80;;;;;;5053550;28;20455;-46
2022/03/14 05:03:57;;;;;;;1.60;1.50;;;11.70;96.80;;;;;;5062444;28;20436;-46
2022/03/14 05:06:25;;;;;;;1.70;1.50;;;11.70;96.80;;;;;;5065775;28;20510;-49
2022/03/14 05:08:53;;;;;;;1.50;1.40;;;11.70;96.70;;;;;;5071255;28;20434;-47
2022/03/14 05:11:25;;;;;;;1.80;1.20;;;11.70;96.70;;;;;;5055872;28;20478;-48
2022/03/14 05:13:55;;;;;;;1.73;1.40;;;11.70;96.80;;;;;;5071255;28;20472;-48
2022/03/14 05:16:23;;;;;;;1.53;1.43;;;11.70;96.80;;;;;;5052529;28;20870;-48
2022/03/14 05:18:51;;;;;;;1.73;1.50;;;11.70;96.90;;;;;;5073789;28;20449;-46
2022/03/14 05:21:20;;;;;;;1.70;1.60;;;11.70;96.80;;;;;;5066103;28;20475;-47
2022/03/14 05:23:51;;;;;;;2.10;1.43;;;11.70;96.80;;;;;;5053746;28;20442;-46
2022/03/14 05:26:19;;;;;;;1.27;1.17;;;11.70;96.80;;;;;;5052736;28;21054;-46
2022/03/14 05:28:47;;;;;;;1.60;1.23;;;11.70;96.80;;;;;;5053043;28;20438;-50
2022/03/14 05:31:21;;;;;;;1.53;1.43;;;11.70;96.90;;;;;;5073163;28;20469;-48
2022/03/14 05:33:49;;;;;;;1.67;1.40;;;11.70;96.70;;;;;;5072769;28;20480;-47
2022/03/14 05:36:18;;;;;;;2.07;1.90;;;11.60;96.70;;;;;;5071086;28;20469;-49
2022/03/14 05:38:46;;;;;;;3.03;1.77;;;11.70;96.80;;;;;;5072511;28;20441;-46
2022/03/14 05:41:17;;;;;;;1.30;1.20;;;11.70;96.70;;;;;;5072918;28;20824;-47
2022/03/14 05:43:45;;;;;;;2.47;1.20;;;11.70;96.70;;;;;;5070016;28;20445;-48
2022/03/14 05:46:13;;;;;;;2.47;1.70;;;11.70;96.70;;;;;;5052464;28;20485;-48
2022/03/14 05:48:43;;;;;;;1.97;1.77;;;11.70;96.70;;;;;;5065132;28;20490;-48
2022/03/14 05:51:11;;;;;;;1.50;1.40;;;11.70;96.70;;;;;;5049097;28;20997;-46
2022/03/14 05:53:40;;;;;;;3.57;1.83;;;11.70;96.70;;;;;;5065196;28;20504;-47
2022/03/14 05:56:08;;;;;;;1.83;1.60;;;11.60;96.60;;;;;;5072230;28;20539;-48
2022/03/14 05:58:37;;;;;;;1.70;1.60;;;11.70;96.60;;;;;;5072622;28;20519;-48
2022/03/14 06:01:06;;;;;;;3.13;1.57;;;11.70;96.60;;;;;;5066196;28;20490;-47
2022/03/14 06:03:37;;;;;;;3.00;1.53;;;11.60;96.60;;;;;;5055020;28;20531;-47
2022/03/14 06:06:07;;;;;;;2.40;1.60;;;11.60;96.70;;;;;;5066660;28;20478;-46
2022/03/14 06:08:36;;;;;;;3.40;1.57;;;11.60;96.70;;;;;;5065861;28;20596;-46
2022/03/14 06:11:07;;;;;;;1.90;1.80;;;11.60;96.70;;;;;;5069386;28;20463;-46
2022/03/14 06:13:36;;;;;;;2.20;1.50;;;11.60;96.70;;;;;;5066224;28;20497;-47
2022/03/14 06:16:05;;;;;;;4.13;1.53;;;11.60;96.70;;;;;;5066315;28;20899;-47
2022/03/14 06:18:36;;;;;;;2.77;2.33;;;11.60;96.70;;;;;;5072423;28;20437;-45
2022/03/14 06:21:04;;;;;;;1.60;1.50;;;11.60;96.80;;;;;;5066827;28;20479;-49
2022/03/14 06:23:34;;;;;;;1.53;1.40;;;11.60;96.80;;;;;;5065561;28;20958;-48
2022/03/14 06:26:02;;;;;;;2.40;2.20;;;11.60;96.80;;;;;;5071962;28;20508;-47
2022/03/14 06:28:30;;;;;;;1.60;1.50;;;11.60;96.80;;;;;;5071990;28;20804;-48
2022/03/14 06:30:58;;;;;;;1.90;1.40;;;11.60;96.70;;;;;;5058315;28;20753;-46
2022/03/14 06:33:27;;;;;;;2.20;2.00;;;11.60;96.70;;;;;;5071364;28;20968;-48
2022/03/14 06:35:55;;;;;;;2.07;1.80;;;11.60;96.70;;;;;;5069548;28;20577;-47
2022/03/14 06:38:23;;;;;;;1.90;1.50;;;11.60;96.70;;;;;;5072039;28;20423;-47
2022/03/14 06:40:54;;;;;;;2.40;1.40;;;11.60;96.70;;;;;;5070082;28;20470;-46
2022/03/14 06:43:22;;;;;;;3.80;1.60;;;11.60;96.70;;;;;;5071374;28;20481;-47
2022/03/14 06:45:50;;;;;;;2.80;1.60;;;11.60;97.20;;;;;;5068703;28;20470;-46
2022/03/14 06:48:19;;;;;;;1.53;1.43;;;11.60;96.60;;;;;;5072162;28;20929;-47
2022/03/14 06:50:47;;;;;;;4.47;1.53;;;11.60;96.60;;;;;;5068373;28;20872;-46
2022/03/14 06:53:15;;;;;;;2.43;1.70;;;11.60;96.60;;;;;;5052028;28;20493;-47
2022/03/14 06:55:44;;;;;;;1.93;1.50;;;11.60;96.70;;;;;;5065544;28;20485;-48
2022/03/14 06:58:17;;;;;;;2.17;1.30;;;11.60;96.60;;;;;;5071354;28;20576;-48
2022/03/14 07:00:45;;;;;;;1.37;1.27;;;11.60;96.70;;;;;;5053276;28;20470;-48
2022/03/14 07:03:14;;;;;;;3.20;1.80;;;11.60;96.60;;;;;;5052587;28;20462;-47
2022/03/14 07:05:43;;;;;;;1.57;1.30;;;11.60;96.60;;;;;;5068351;28;20550;-48
2022/03/14 07:08:11;;;;;;;2.50;1.43;;;11.50;96.60;;;;;;5068949;28;20434;-45
2022/03/14 07:10:39;;;;;;;2.20;1.40;;;11.60;96.60;;;;;;5070633;28;20466;-47
2022/03/14 07:13:07;;;;;;;1.70;1.53;;;11.60;96.60;;;;;;5070483;28;20508;-47
2022/03/14 07:15:37;;;;;;;2.50;1.63;;;11.60;96.50;;;;;;5052907;28;20523;-45
2022/03/14 07:18:05;;;;;;;1.40;1.30;;;11.60;97.00;;;;;;5053863;28;20434;-48
2022/03/14 07:20:33;;;;;;;10.10;1.97;;;11.60;96.50;;;;;;5070660;28;20462;-47
2022/03/14 07:23:02;;;;;;;1.70;1.60;;;11.60;96.50;;;;;;5049088;28;20473;-48
2022/03/14 07:25:32;;;;;;;2.57;1.70;;;11.60;96.60;;;;;;5069279;28;21015;-47
2022/03/14 07:28:05;;;;;;;5.30;1.50;;;11.60;96.60;;;;;;5072213;28;20928;-46
2022/03/14 07:30:33;;;;;;;1.60;1.50;;;11.60;96.60;;;;;;5069665;28;20507;-48
2022/03/14 07:33:04;;;;;;;2.03;1.83;;;11.60;96.60;;;;;;5071018;28;20488;-47
2022/03/14 07:35:34;;;;;;;2.13;1.30;;;11.60;96.60;;;;;;5069946;28;20458;-45
2022/03/14 07:38:03;;;;;;;1.60;1.50;;;11.60;96.70;;;;;;5070456;28;20438;-49
2022/03/14 07:40:32;;;;;;;1.53;1.37;;;11.60;96.60;;;;;;5070409;28;20489;-49
2022/03/14 07:43:01;;;;;;;2.93;1.80;;;11.60;96.60;;;;;;5071034;28;20450;-47
2022/03/14 07:45:33;;;;;;;1.77;1.57;;;11.60;96.60;;;;;;5064940;28;20478;-48
2022/03/14 07:48:08;;;;;;;3.07;1.40;;;11.60;96.60;;;;;;5050794;28;20918;-48
2022/03/14 07:50:37;;;;;;;3.83;1.83;;;11.60;96.60;;;;;;5065138;28;20462;-48
2022/03/14 07:53:07;;;;;;;2.40;1.40;;;11.60;96.60;;;;;;5070456;28;20569;-47
2022/03/14 07:55:35;;;;;;;2.33;1.30;;;11.60;96.60;;;;;;5070118;28;20457;-48
2022/03/14 07:58:03;;;;;;;2.30;1.80;;;11.60;96.60;;;;;;5070380;28;20434;-48
2022/03/14 08:00:35;;;;;;;1.20;1.10;;;11.60;96.70;;;;;;5070061;28;20462;-48
2022/03/14 08:03:03;;;;;;;1.93;1.47;;;11.60;96.60;;;;;;5070133;28;20450;-47
2022/03/14 08:05:33;;;;;;;5.53;2.13;;;11.60;96.60;;;;;;5069519;28;20540;-46
2022/03/14 08:08:08;;;;;;;2.40;1.63;;;11.60;96.60;;;;;;5053482;28;20775;-48
2022/03/14 08:10:36;;;;;;;2.20;2.10;;;11.60;96.60;;;;;;5065276;28;20485;-46
2022/03/14 08:13:05;;;;;;;2.60;1.30;;;11.60;96.60;;;;;;5070215;28;20575;-49
2022/03/14 08:15:35;;;;;;;3.77;1.90;;;11.60;96.70;;;;;;5068417;28;20980;-49
2022/03/14 08:18:08;;;;;;;1.87;1.37;;;11.60;96.70;;;;;;5051127;28;20435;-47
2022/03/14 08:20:38;;;;;;;1.47;1.37;;;11.60;96.60;;;;;;5050210;28;20530;-47
2022/03/14 08:23:08;;;;;;;4.20;1.47;;;11.60;97.10;;;;;;5067862;28;20461;-46
2022/03/14 08:25:37;;;;;;;3.23;1.20;;;11.60;96.60;;;;;;5053925;28;20472;-47
2022/03/14 08:28:05;;;;;;;1.77;1.40;;;11.60;96.60;;;;;;5073891;28;20937;-46
2022/03/14 08:30:34;;;;;;;1.23;1.13;;;11.60;96.60;;;;;;5063896;28;20515;-49
2022/03/14 08:33:03;;;;;;;1.30;1.20;;;11.60;96.60;;;;;;5071557;28;20809;-48
2022/03/14 08:35:32;;;;;;;1.60;1.50;;;11.60;96.60;;;;;;5053747;28;20466;-48
2022/03/14 08:38:01;;;;;;;1.67;1.57;;;11.60;96.50;;;;;;5074017;28;20454;-45
2022/03/14 08:40:30;;;;;;;2.40;1.60;;;11.70;96.70;;;;;;5074168;28;20453;-47
2022/03/14 08:42:58;;;;;;;2.50;1.37;;;11.70;96.60;;;;;;5074499;28;20852;-49
2022/03/14 08:45:27;;;;;;;1.60;1.47;;;11.70;96.60;;;;;;5072754;28;20462;-47
2022/03/14 08:47:56;;;;;;;1.40;1.30;;;11.70;96.60;;;;;;5074167;28;20432;-48
2022/03/14 08:50:24;;;;;;;2.50;1.50;;;11.70;96.60;;;;;;5073313;28;20457;-48
2022/03/14 08:52:53;;;;;;;1.60;1.27;;;11.70;96.50;;;;;;5054586;28;20459;-47
2022/03/14 08:55:24;;;;;;;1.60;1.43;;;11.70;96.60;;;;;;5059665;28;20765;-45
2022/03/14 08:57:52;;;;;;;2.57;2.27;;;11.70;96.50;;;;;;5073439;28;20479;-47
2022/03/14 09:00:21;;;;;;;1.80;1.53;;;11.70;96.50;;;;;;5071818;28;20447;-48
2022/03/14 09:02:50;;;;;;;3.10;1.50;;;11.70;96.50;;;;;;5072515;28;20467;-47
2022/03/14 09:05:18;;;;;;;1.60;1.50;;;11.70;96.50;;;;;;5073091;28;20426;-49
2022/03/14 09:07:52;;;;;;;1.73;1.40;;;11.70;96.50;;;;;;5067242;28;20579;-47
2022/03/14 09:10:20;;;;;;;1.70;1.60;;;11.70;96.50;;;;;;5073459;28;20426;-47
2022/03/14 09:12:51;;;;;;;1.60;1.50;;;11.70;96.50;;;;;;5073386;28;20472;-49
2022/03/14 09:15:22;;;;;;;1.90;1.43;;;11.70;96.50;;;;;;5069885;28;20492;-46
2022/03/14 09:17:51;;;;;;;1.80;1.70;;;11.70;96.40;;;;;;5073326;28;20423;-46
2022/03/14 09:20:23;;;;;;;1.60;1.50;;;11.70;96.40;;;;;;5073021;28;20438;-46
2022/03/14 09:22:52;;;;;;;1.97;1.80;;;11.70;96.40;;;;;;5067439;28;20462;-47
2022/03/14 09:25:22;;;;;;;1.77;1.43;;;11.70;96.90;;;;;;5072164;28;20701;-48
2022/03/14 09:27:53;;;;;;;1.77;1.30;;;11.70;96.40;;;;;;5073157;28;20429;-47
2022/03/14 09:30:22;;;;;;;1.40;1.30;;;11.70;96.40;;;;;;5064736;28;20487;-48
2022/03/14 09:32:51;;;;;;;2.73;1.57;;;11.80;96.50;;;;;;5073855;28;20470;-47
2022/03/14 09:35:21;;;;;;;1.80;1.47;;;11.70;96.40;;;;;;5072186;28;20431;-45
2022/03/14 09:37:50;;;;;;;2.03;1.33;;;11.80;96.40;;;;;;5068071;28;20445;-50
2022/03/14 09:40:23;;;;;;;1.53;1.43;;;11.70;96.30;;;;;;5093218;28;20482;-46
2022/03/14 09:42:56;;;;;;;1.63;1.23;;;11.80;96.30;;;;;;5093660;28;20438;-48
2022/03/14 09:45:24;;;;;;;1.90;1.33;;;11.80;96.50;;;;;;5070001;28;20523;-46
2022/03/14 09:47:59;;;;;;;1.60;1.40;;;11.80;96.20;;;;;;5071748;28;20434;-46
2022/03/14 09:50:31;;;;;;;1.60;1.50;;;11.80;96.30;;;;;;5054426;28;21077;-47
2022/03/14 09:53:00;;;;;;;1.50;1.20;;;11.80;96.30;;;;;;5062718;28;20505;-49
2022/03/14 09:55:29;;;;;;;1.37;1.27;;;11.80;96.30;;;;;;5071559;28;20457;-48
2022/03/14 09:57:59;;;;;;;2.23;1.30;;;11.80;96.30;;;;;;5072490;28;20465;-49
2022/03/14 10:00:27;;;;;;;1.83;1.73;;;11.80;96.30;;;;;;5071171;28;21084;-47
2022/03/14 10:02:56;;;;;;;1.43;1.10;;;11.80;96.30;;;;;;5072129;28;20492;-49
2022/03/14 10:05:25;;;;;;;1.87;1.23;;;11.80;96.30;;;;;;5071139;28;20470;-48
2022/03/14 10:07:53;;;;;;;1.40;1.30;;;11.80;96.30;;;;;;5066906;28;20818;-48
2022/03/14 10:10:22;;;;;;;1.53;1.43;;;11.80;96.30;;;;;;5072139;28;20465;-46
2022/03/14 10:12:53;;;;;;;1.33;1.23;;;11.80;96.30;;;;;;5072167;28;20469;-47
2022/03/14 10:15:25;;;;;;;2.73;1.73;;;11.80;96.30;;;;;;5070905;28;20465;-49
2022/03/14 10:17:54;;;;;;;1.70;1.60;;;11.80;96.30;;;;;;5068305;28;20949;-47
2022/03/14 10:20:25;;;;;;;1.57;1.47;;;11.80;96.30;;;;;;5071584;28;20509;-49
2022/03/14 10:22:58;;;;;;;1.73;1.63;;;11.80;96.30;;;;;;5068611;28;20466;-48
2022/03/14 10:25:26;;;;;;;1.30;1.20;;;11.80;96.30;;;;;;5071472;28;20809;-48
2022/03/14 10:27:57;;;;;;;2.07;1.43;;;11.80;96.20;;;;;;5072359;28;20426;-49
2022/03/14 10:30:29;;;;;;;2.57;1.23;;;11.80;96.20;;;;;;5062708;28;20450;-46
2022/03/14 10:33:02;;;;;;;1.47;1.30;;;11.80;96.20;;;;;;5071878;28;20462;-48
2022/03/14 10:35:36;;;;;;;2.20;2.00;;;11.80;96.20;;;;;;5072051;28;20458;-48
2022/03/14 10:38:07;;;;;;;1.40;1.20;;;11.80;96.20;;;;;;5070646;28;20492;-49
2022/03/14 10:40:38;;;;;;;1.50;1.20;;;11.80;96.30;;;;;;5070707;28;20485;-49
2022/03/14 10:43:09;;;;;;;1.73;1.07;;;11.80;96.30;;;;;;5071295;28;20829;-47
2022/03/14 10:45:46;;;;;;;1.53;1.40;;;11.80;96.30;;;;;;5064545;28;20472;-46
2022/03/14 10:48:14;;;;;;;1.40;1.30;;;11.80;96.30;;;;;;5067699;28;20445;-46
2022/03/14 10:50:43;;;;;;;1.77;1.67;;;11.80;96.20;;;;;;5069118;28;20895;-48
2022/03/14 10:53:20;;;;;;;1.83;1.57;;;11.80;96.20;;;;;;5051964;28;20467;-46
2022/03/14 10:55:50;;;;;;;2.90;1.73;;;11.80;96.20;;;;;;5059458;28;20981;-48
2022/03/14 10:58:21;;;;;;;2.30;1.30;;;11.80;96.10;;;;;;5069295;28;20825;-46
2022/03/14 11:00:53;;;;;;;2.07;1.53;;;11.80;96.10;;;;;;5059520;28;20462;-46
2022/03/14 11:03:26;;;;;;;1.20;1.10;;;11.80;96.10;;;;;;5071531;28;20457;-46
2022/03/14 11:05:59;;;;;;;3.30;1.50;;;11.80;96.10;;;;;;5066697;28;20488;-48
2022/03/14 11:08:33;;;;;;;1.63;1.20;;;11.80;96.00;;;;;;5067974;28;20840;-49
2022/03/14 11:11:03;;;;;;;1.97;1.37;;;11.80;96.10;;;;;;5054504;28;20476;-49
2022/03/14 11:13:32;;;;;;;2.50;1.30;;;11.80;96.00;;;;;;5070971;28;20810;-49
2022/03/14 11:16:04;;;;;;;2.57;1.13;;;11.80;96.00;;;;;;5049446;28;20470;-47
2022/03/14 11:18:35;;;;;;;2.27;1.23;;;11.80;96.00;;;;;;5071604;28;20434;-47
2022/03/14 11:21:05;;;;;;;1.40;1.20;;;11.80;96.00;;;;;;5068588;28;20494;-48
2022/03/14 11:23:35;;;;;;;2.07;1.20;;;11.80;96.00;;;;;;5072470;28;20438;-48
2022/03/14 11:26:03;;;;;;;1.47;1.17;;;11.80;96.00;;;;;;5071131;28;20951;-47
2022/03/14 11:28:35;;;;;;;1.77;0.97;;;11.80;96.10;;;;;;5072831;28;20422;-47
2022/03/14 11:31:05;;;;;;;1.97;1.30;;;11.80;96.10;;;;;;5070233;28;20474;-49
2022/03/14 11:33:35;;;;;;;1.40;1.10;;;11.80;96.10;;;;;;5072778;28;20469;-47
2022/03/14 11:36:04;;;;;;;1.20;1.10;;;11.80;96.10;;;;;;5067589;28;20518;-46
2022/03/14 11:38:35;;;;;;;1.20;1.10;;;11.80;96.10;;;;;;5071685;28;20449;-48
2022/03/14 11:41:03;;;;;;;1.13;1.03;;;11.80;96.10;;;;;;5071390;28;20557;-47
2022/03/14 11:43:32;;;;;;;1.67;1.57;;;11.80;96.10;;;;;;5073299;28;21030;-49
2022/03/14 11:46:19;;;;;;;3.77;1.30;;;11.80;96.10;;;;;;5062769;28;20986;-47
2022/03/14 11:48:48;;;;;;;1.27;1.17;;;11.80;96.10;;;;;;5053460;28;20449;-49
2022/03/14 11:51:16;;;;;;;3.00;1.40;;;11.80;96.10;;;;;;5064830;28;20467;-50
2022/03/14 11:53:50;;;;;;;1.73;1.20;;;11.80;96.10;;;;;;5056998;28;20500;-47
2022/03/14 11:56:18;;;;;;;1.30;1.20;;;11.80;96.00;;;;;;5069714;28;20462;-49
2022/03/14 11:58:56;;;;;;;1.20;1.10;;;11.80;96.00;;;;;;5070076;28;20434;-48
2022/03/14 12:01:30;;;;;;;1.87;1.77;;;11.80;95.90;;;;;;5067492;28;20467;-48
2022/03/14 12:04:00;;;;;;;1.57;1.47;;;11.80;95.90;;;;;;5069367;28;20434;-46
2022/03/14 12:07:06;;;;;;;1.50;1.40;;;11.80;96.00;;;;;;5059763;28;20463;-50
2022/03/14 12:09:54;;;;;;;1.50;1.40;;;11.80;96.00;;;;;;5070244;28;20517;-48
2022/03/14 12:12:33;;;;;;;1.77;1.50;;;11.80;96.00;;;;;;5054762;28;20482;-48
2022/03/14 12:15:03;;;;;;;3.40;1.80;;;11.80;96.00;;;;;;5067368;28;20559;-47
2022/03/14 12:17:45;;;;;;;1.60;1.50;;;11.80;96.00;;;;;;5069743;28;20863;-48
2022/03/14 12:20:15;;;;;;;1.97;1.33;;;11.80;95.90;;;;;;5052134;28;20497;-47
2022/03/14 12:22:47;;;;;;;1.40;1.30;;;11.90;96.00;;;;;;5064532;28;20607;-47
2022/03/14 12:25:42;;;;;;;1.70;1.50;;;11.80;96.00;;;;;;5068348;28;20446;-50
2022/03/14 12:28:30;;;;;;;1.73;1.37;;;11.80;96.00;;;;;;5070373;28;20476;-48
2022/03/14 12:31:09;;;;;;;0.97;0.90;;;11.90;96.10;;;;;;5068165;28;20518;-48
2022/03/14 12:33:43;;;;;;;1.60;1.50;;;11.80;96.00;;;;;;5068973;28;20459;-47
2022/03/14 12:36:33;;;;;;;1.50;1.40;;;11.90;96.10;;;;;;5063130;28;20478;-50
2022/03/14 12:39:26;;;;;;;2.50;1.37;;;11.90;96.10;;;;;;5050315;28;20424;-48
2022/03/14 12:42:14;;;;;;;1.97;1.07;;;11.80;96.00;;;;;;5065436;28;20474;-47
2022/03/14 12:44:43;;;;;;;4.27;1.23;;;11.80;96.00;;;;;;5065861;28;20434;-48
2022/03/14 12:47:15;;;;;;;1.87;1.50;;;11.90;96.10;;;;;;5068621;28;20531;-46
2022/03/14 12:49:51;;;;;;;1.37;1.27;;;11.80;96.00;;;;;;5069132;28;20430;-47
2022/03/14 12:52:21;;;;;;;1.77;1.40;;;11.80;96.00;;;;;;5064114;28;20498;-48
2022/03/14 12:54:50;;;;;;;1.90;1.60;;;11.80;96.00;;;;;;5068875;28;20531;-46
2022/03/14 12:57:23;;;;;;;1.83;1.47;;;11.80;96.00;;;;;;5069274;28;20469;-47
2022/03/14 12:59:59;;;;;;;1.90;1.40;;;11.80;96.00;;;;;;5068411;28;20441;-47
2022/03/14 13:02:28;;;;;;;2.20;1.40;;;11.80;96.00;;;;;;5069015;28;20470;-49